sensor_id;sensor_type;location;lat;lon;timestamp;pressure;altitude;pressure_sealevel;temperature;humidity
2188;BME280;1100;52.014;8.540;2023-04-19T00:02:17;101349.28;;;8.34;71.16
2188;BME280;1100;52.014;8.540;2023-04-19T00:04:43;101344.94;;;8.30;70.94
2188;BME280;1100;52.014;8.540;2023-04-19T00:07:09;101343.72;;;8.31;71.08
2188;BME280;1100;52.014;8.540;2023-04-19T00:09:35;101347.31;;;8.31;70.77
2188;BME280;1100;52.014;8.540;2023-04-19T00:12:01;101334.22;;;8.28;70.89
2188;BME280;1100;52.014;8.540;2023-04-19T00:14:27;101331.84;;;8.23;70.82
2188;BME280;1100;52.014;8.540;2023-04-19T00:16:52;101326.28;;;8.19;70.78
2188;BME280;1100;52.014;8.540;2023-04-19T00:19:17;101320.75;;;8.16;70.71
2188;BME280;1100;52.014;8.540;2023-04-19T00:21:42;101329.06;;;8.16;70.78
2188;BME280;1100;52.014;8.540;2023-04-19T00:24:08;101328.66;;;8.14;70.66
2188;BME280;1100;52.014;8.540;2023-04-19T00:26:33;101327.88;;;8.09;70.78
2188;BME280;1100;52.014;8.540;2023-04-19T00:28:59;101332.56;;;8.05;70.91
2188;BME280;1100;52.014;8.540;2023-04-19T00:31:24;101327.44;;;8.00;70.66
2188;BME280;1100;52.014;8.540;2023-04-19T00:33:50;101319.13;;;7.96;70.61
2188;BME280;1100;52.014;8.540;2023-04-19T00:36:15;101326.59;;;7.92;70.55
2188;BME280;1100;52.014;8.540;2023-04-19T00:38:40;101324.63;;;7.85;70.57
2188;BME280;1100;52.014;8.540;2023-04-19T00:41:06;101324.19;;;7.83;70.77
2188;BME280;1100;52.014;8.540;2023-04-19T00:43:31;101318.28;;;7.85;70.65
2188;BME280;1100;52.014;8.540;2023-04-19T00:45:56;101320.25;;;7.88;70.65
2188;BME280;1100;52.014;8.540;2023-04-19T00:48:22;101322.63;;;7.86;70.72
2188;BME280;1100;52.014;8.540;2023-04-19T00:50:48;101315.88;;;7.80;70.77
2188;BME280;1100;52.014;8.540;2023-04-19T00:53:14;101323.38;;;7.76;70.71
2188;BME280;1100;52.014;8.540;2023-04-19T00:55:40;101317.03;;;7.71;70.90
2188;BME280;1100;52.014;8.540;2023-04-19T00:58:07;101317.03;;;7.68;70.62
2188;BME280;1100;52.014;8.540;2023-04-19T01:00:33;101319.38;;;7.66;70.70
2188;BME280;1100;52.014;8.540;2023-04-19T01:02:59;101313.47;;;7.64;70.76
2188;BME280;1100;52.014;8.540;2023-04-19T01:05:24;101315.00;;;7.61;70.69
2188;BME280;1100;52.014;8.540;2023-04-19T01:07:49;101317.78;;;7.61;70.81
2188;BME280;1100;52.014;8.540;2023-04-19T01:10:15;101322.53;;;7.60;70.76
2188;BME280;1100;52.014;8.540;2023-04-19T01:12:40;101320.53;;;7.57;70.53
2188;BME280;1100;52.014;8.540;2023-04-19T01:15:06;101316.19;;;7.53;70.49
2188;BME280;1100;52.014;8.540;2023-04-19T01:17:32;101311.78;;;7.44;70.41
2188;BME280;1100;52.014;8.540;2023-04-19T01:19:59;101312.53;;;7.34;70.14
2188;BME280;1100;52.014;8.540;2023-04-19T01:22:25;101313.25;;;7.23;70.32
2188;BME280;1100;52.014;8.540;2023-04-19T01:24:50;101313.16;;;7.13;70.32
2188;BME280;1100;52.014;8.540;2023-04-19T01:27:16;101308.78;;;7.04;70.38
2188;BME280;1100;52.014;8.540;2023-04-19T01:29:42;101303.97;;;6.94;70.62
2188;BME280;1100;52.014;8.540;2023-04-19T01:32:07;101305.91;;;6.90;70.79
2188;BME280;1100;52.014;8.540;2023-04-19T01:34:32;101305.50;;;6.88;70.77
2188;BME280;1100;52.014;8.540;2023-04-19T01:36:58;101296.00;;;6.85;70.61
2188;BME280;1100;52.014;8.540;2023-04-19T01:39:24;101301.53;;;6.85;70.65
2188;BME280;1100;52.014;8.540;2023-04-19T01:41:50;101296.44;;;6.87;70.95
2188;BME280;1100;52.014;8.540;2023-04-19T01:44:15;101299.19;;;6.91;71.04
2188;BME280;1100;52.014;8.540;2023-04-19T01:46:40;101289.38;;;6.93;71.07
2188;BME280;1100;52.014;8.540;2023-04-19T01:49:07;101294.13;;;6.96;71.01
2188;BME280;1100;52.014;8.540;2023-04-19T01:51:33;101293.31;;;6.96;70.85
2188;BME280;1100;52.014;8.540;2023-04-19T01:53:58;101296.47;;;6.94;70.81
2188;BME280;1100;52.014;8.540;2023-04-19T01:56:23;101281.84;;;6.94;70.82
2188;BME280;1100;52.014;8.540;2023-04-19T01:58:49;101290.56;;;6.96;70.98
2188;BME280;1100;52.014;8.540;2023-04-19T02:01:14;101291.31;;;6.93;70.90
2188;BME280;1100;52.014;8.540;2023-04-19T02:03:40;101283.84;;;6.93;70.82
2188;BME280;1100;52.014;8.540;2023-04-19T02:06:09;101288.19;;;6.94;70.70
2188;BME280;1100;52.014;8.540;2023-04-19T02:08:35;101289.75;;;6.95;70.86
2188;BME280;1100;52.014;8.540;2023-04-19T02:11:06;101282.66;;;6.94;71.00
2188;BME280;1100;52.014;8.540;2023-04-19T02:13:31;101289.38;;;6.93;70.78
2188;BME280;1100;52.014;8.540;2023-04-19T02:15:57;101293.28;;;6.92;70.85
2188;BME280;1100;52.014;8.540;2023-04-19T02:18:22;101286.94;;;6.88;70.47
2188;BME280;1100;52.014;8.540;2023-04-19T02:20:48;101288.53;;;6.85;70.59
2188;BME280;1100;52.014;8.540;2023-04-19T02:23:14;101291.63;;;6.80;70.61
2188;BME280;1100;52.014;8.540;2023-04-19T02:25:39;101300.31;;;6.79;70.65
2188;BME280;1100;52.014;8.540;2023-04-19T02:28:05;101288.44;;;6.75;70.47
2188;BME280;1100;52.014;8.540;2023-04-19T02:30:30;101290.41;;;6.74;70.77
2188;BME280;1100;52.014;8.540;2023-04-19T02:32:55;101289.22;;;6.71;70.80
2188;BME280;1100;52.014;8.540;2023-04-19T02:35:22;101285.22;;;6.69;70.63
2188;BME280;1100;52.014;8.540;2023-04-19T02:37:48;101286.78;;;6.66;70.60
2188;BME280;1100;52.014;8.540;2023-04-19T02:40:13;101286.75;;;6.63;70.83
2188;BME280;1100;52.014;8.540;2023-04-19T02:42:38;101285.56;;;6.60;70.80
2188;BME280;1100;52.014;8.540;2023-04-19T02:45:04;101294.63;;;6.57;70.24
2188;BME280;1100;52.014;8.540;2023-04-19T02:47:29;101290.63;;;6.51;70.47
2188;BME280;1100;52.014;8.540;2023-04-19T02:49:55;101298.44;;;6.45;69.97
2188;BME280;1100;52.014;8.540;2023-04-19T02:52:20;101300.38;;;6.41;69.53
2188;BME280;1100;52.014;8.540;2023-04-19T02:54:45;101300.69;;;6.32;69.65
2188;BME280;1100;52.014;8.540;2023-04-19T02:57:11;101302.97;;;6.22;69.58
2188;BME280;1100;52.014;8.540;2023-04-19T02:59:36;101308.03;;;6.17;69.38
2188;BME280;1100;52.014;8.540;2023-04-19T03:02:01;101306.41;;;6.12;68.34
2188;BME280;1100;52.014;8.540;2023-04-19T03:04:27;101304.81;;;6.11;68.70
2188;BME280;1100;52.014;8.540;2023-04-19T03:06:53;101305.97;;;6.06;68.68
2188;BME280;1100;52.014;8.540;2023-04-19T03:09:18;101300.75;;;6.01;68.76
2188;BME280;1100;52.014;8.540;2023-04-19T03:11:43;101299.50;;;5.95;68.02
2188;BME280;1100;52.014;8.540;2023-04-19T03:14:09;101303.00;;;5.92;68.16
2188;BME280;1100;52.014;8.540;2023-04-19T03:16:34;101305.31;;;5.86;68.08
2188;BME280;1100;52.014;8.540;2023-04-19T03:18:59;101301.75;;;5.85;67.78
2188;BME280;1100;52.014;8.540;2023-04-19T03:21:24;101299.00;;;5.85;67.66
2188;BME280;1100;52.014;8.540;2023-04-19T03:23:52;101297.00;;;5.82;67.53
2188;BME280;1100;52.014;8.540;2023-04-19T03:26:17;101299.38;;;5.84;67.57
2188;BME280;1100;52.014;8.540;2023-04-19T03:28:43;101294.22;;;5.82;67.39
2188;BME280;1100;52.014;8.540;2023-04-19T03:31:08;101294.66;;;5.84;67.08
2188;BME280;1100;52.014;8.540;2023-04-19T03:33:33;101291.47;;;5.82;66.56
2188;BME280;1100;52.014;8.540;2023-04-19T03:35:59;101293.84;;;5.80;66.11
2188;BME280;1100;52.014;8.540;2023-04-19T03:38:24;101290.59;;;5.74;66.28
2188;BME280;1100;52.014;8.540;2023-04-19T03:40:49;101290.56;;;5.71;66.41
2188;BME280;1100;52.014;8.540;2023-04-19T03:43:15;101293.66;;;5.66;66.33
2188;BME280;1100;52.014;8.540;2023-04-19T03:45:40;101293.16;;;5.56;66.07
2188;BME280;1100;52.014;8.540;2023-04-19T03:48:06;101288.69;;;5.48;65.63
2188;BME280;1100;52.014;8.540;2023-04-19T03:50:31;101292.13;;;5.38;65.88
2188;BME280;1100;52.014;8.540;2023-04-19T03:52:56;101285.72;;;5.30;66.09
2188;BME280;1100;52.014;8.540;2023-04-19T03:55:21;101294.63;;;5.19;65.85
2188;BME280;1100;52.014;8.540;2023-04-19T03:57:47;101299.22;;;5.11;66.36
2188;BME280;1100;52.014;8.540;2023-04-19T04:00:13;101299.50;;;5.03;66.11
2188;BME280;1100;52.014;8.540;2023-04-19T04:02:38;101295.03;;;4.94;66.23
2188;BME280;1100;52.014;8.540;2023-04-19T04:05:04;101300.44;;;4.87;65.98
2188;BME280;1100;52.014;8.540;2023-04-19T04:07:30;101297.97;;;4.78;66.13
2188;BME280;1100;52.014;8.540;2023-04-19T04:09:55;101305.00;;;4.76;66.35
2188;BME280;1100;52.014;8.540;2023-04-19T04:12:20;101307.63;;;4.68;66.13
2188;BME280;1100;52.014;8.540;2023-04-19T04:14:46;101301.66;;;4.63;66.28
2188;BME280;1100;52.014;8.540;2023-04-19T04:17:14;101308.63;;;4.56;66.40
2188;BME280;1100;52.014;8.540;2023-04-19T04:19:39;101295.16;;;4.51;66.17
2188;BME280;1100;52.014;8.540;2023-04-19T04:22:05;101301.41;;;4.48;66.19
2188;BME280;1100;52.014;8.540;2023-04-19T04:24:37;101304.81;;;4.41;66.30
2188;BME280;1100;52.014;8.540;2023-04-19T04:27:02;101298.03;;;4.35;66.50
2188;BME280;1100;52.014;8.540;2023-04-19T04:29:28;101305.06;;;4.32;66.27
2188;BME280;1100;52.014;8.540;2023-04-19T04:31:53;101300.66;;;4.28;66.56
2188;BME280;1100;52.014;8.540;2023-04-19T04:34:19;101313.22;;;4.25;66.62
2188;BME280;1100;52.014;8.540;2023-04-19T04:36:44;101309.56;;;4.21;66.39
2188;BME280;1100;52.014;8.540;2023-04-19T04:39:09;101319.38;;;4.18;66.41
2188;BME280;1100;52.014;8.540;2023-04-19T04:41:36;101325.22;;;4.17;66.60
2188;BME280;1100;52.014;8.540;2023-04-19T04:44:05;101327.50;;;4.11;66.48
2188;BME280;1100;52.014;8.540;2023-04-19T04:46:30;101320.34;;;4.06;66.26
2188;BME280;1100;52.014;8.540;2023-04-19T04:48:55;101325.41;;;4.04;66.57
2188;BME280;1100;52.014;8.540;2023-04-19T04:51:21;101320.63;;;4.01;66.51
2188;BME280;1100;52.014;8.540;2023-04-19T04:53:46;101324.09;;;3.98;66.38
2188;BME280;1100;52.014;8.540;2023-04-19T04:56:11;101314.97;;;3.94;66.41
2188;BME280;1100;52.014;8.540;2023-04-19T04:58:37;101326.69;;;3.91;66.68
2188;BME280;1100;52.014;8.540;2023-04-19T05:01:02;101319.97;;;3.88;66.24
2188;BME280;1100;52.014;8.540;2023-04-19T05:03:28;101313.59;;;3.84;66.36
2188;BME280;1100;52.014;8.540;2023-04-19T05:05:53;101324.53;;;3.80;66.52
2188;BME280;1100;52.014;8.540;2023-04-19T05:08:18;101323.66;;;3.76;66.73
2188;BME280;1100;52.014;8.540;2023-04-19T05:10:46;101329.94;;;3.77;66.73
2188;BME280;1100;52.014;8.540;2023-04-19T05:13:11;101320.47;;;3.74;66.47
2188;BME280;1100;52.014;8.540;2023-04-19T05:15:37;101329.94;;;3.77;66.71
2188;BME280;1100;52.014;8.540;2023-04-19T05:18:03;101327.63;;;3.79;66.66
2188;BME280;1100;52.014;8.540;2023-04-19T05:20:29;101328.09;;;3.81;66.63
2188;BME280;1100;52.014;8.540;2023-04-19T05:22:57;101322.63;;;3.84;66.63
2188;BME280;1100;52.014;8.540;2023-04-19T05:25:23;101324.25;;;3.85;66.93
2188;BME280;1100;52.014;8.540;2023-04-19T05:27:48;101326.28;;;3.89;66.92
2188;BME280;1100;52.014;8.540;2023-04-19T05:30:14;101329.06;;;3.92;66.73
2188;BME280;1100;52.014;8.540;2023-04-19T05:32:39;101324.81;;;3.95;66.94
2188;BME280;1100;52.014;8.540;2023-04-19T05:35:07;101324.88;;;3.98;66.85
2188;BME280;1100;52.014;8.540;2023-04-19T05:37:33;101326.56;;;4.03;66.69
2188;BME280;1100;52.014;8.540;2023-04-19T05:39:58;101331.75;;;4.08;66.73
2188;BME280;1100;52.014;8.540;2023-04-19T05:42:23;101329.88;;;4.13;66.75
2188;BME280;1100;52.014;8.540;2023-04-19T05:44:49;101325.22;;;4.17;66.75
2188;BME280;1100;52.014;8.540;2023-04-19T05:47:14;101336.69;;;4.19;66.63
2188;BME280;1100;52.014;8.540;2023-04-19T05:49:41;101333.63;;;4.24;66.78
2188;BME280;1100;52.014;8.540;2023-04-19T05:52:06;101328.56;;;4.26;66.61
2188;BME280;1100;52.014;8.540;2023-04-19T05:54:32;101322.31;;;4.29;66.53
2188;BME280;1100;52.014;8.540;2023-04-19T05:57:00;101322.31;;;4.29;66.83
2188;BME280;1100;52.014;8.540;2023-04-19T05:59:26;101329.41;;;4.30;66.66
2188;BME280;1100;52.014;8.540;2023-04-19T06:01:51;101333.75;;;4.31;66.56
2188;BME280;1100;52.014;8.540;2023-04-19T06:04:17;101324.78;;;4.34;66.65
2188;BME280;1100;52.014;8.540;2023-04-19T06:06:42;101323.25;;;4.37;66.72
2188;BME280;1100;52.014;8.540;2023-04-19T06:09:07;101322.94;;;4.42;66.90
2188;BME280;1100;52.014;8.540;2023-04-19T06:11:33;101330.47;;;4.45;66.95
2188;BME280;1100;52.014;8.540;2023-04-19T06:13:58;101331.41;;;4.53;66.54
2188;BME280;1100;52.014;8.540;2023-04-19T06:16:23;101322.50;;;4.64;67.07
2188;BME280;1100;52.014;8.540;2023-04-19T06:18:48;101331.75;;;4.75;66.95
2188;BME280;1100;52.014;8.540;2023-04-19T06:21:14;101331.06;;;4.82;66.88
2188;BME280;1100;52.014;8.540;2023-04-19T06:23:40;101335.97;;;4.92;66.80
2188;BME280;1100;52.014;8.540;2023-04-19T06:26:05;101326.25;;;5.02;66.78
2188;BME280;1100;52.014;8.540;2023-04-19T06:28:30;101330.66;;;5.07;66.60
2188;BME280;1100;52.014;8.540;2023-04-19T06:30:56;101335.50;;;5.14;66.59
2188;BME280;1100;52.014;8.540;2023-04-19T06:33:21;101331.72;;;5.26;66.84
2188;BME280;1100;52.014;8.540;2023-04-19T06:35:46;101331.91;;;5.36;66.70
2188;BME280;1100;52.014;8.540;2023-04-19T06:38:12;101334.00;;;5.47;66.68
2188;BME280;1100;52.014;8.540;2023-04-19T06:40:37;101336.47;;;5.56;66.67
2188;BME280;1100;52.014;8.540;2023-04-19T06:43:02;101344.06;;;5.63;66.39
2188;BME280;1100;52.014;8.540;2023-04-19T06:45:27;101343.31;;;5.66;66.14
2188;BME280;1100;52.014;8.540;2023-04-19T06:47:53;101335.47;;;5.68;66.06
2188;BME280;1100;52.014;8.540;2023-04-19T06:50:18;101337.03;;;5.69;66.30
2188;BME280;1100;52.014;8.540;2023-04-19T06:52:44;101346.13;;;5.69;65.84
2188;BME280;1100;52.014;8.540;2023-04-19T06:55:09;101340.97;;;5.68;66.14
2188;BME280;1100;52.014;8.540;2023-04-19T06:57:35;101334.22;;;5.65;66.04
2188;BME280;1100;52.014;8.540;2023-04-19T07:00:02;101344.13;;;5.70;65.87
2188;BME280;1100;52.014;8.540;2023-04-19T07:02:28;101339.09;;;5.76;66.17
2188;BME280;1100;52.014;8.540;2023-04-19T07:04:54;101331.72;;;5.87;66.30
2188;BME280;1100;52.014;8.540;2023-04-19T07:07:19;101331.47;;;5.96;65.60
2188;BME280;1100;52.014;8.540;2023-04-19T07:09:44;101330.34;;;6.01;65.77
2188;BME280;1100;52.014;8.540;2023-04-19T07:12:10;101338.19;;;5.98;65.42
2188;BME280;1100;52.014;8.540;2023-04-19T07:14:35;101337.44;;;6.02;65.58
2188;BME280;1100;52.014;8.540;2023-04-19T07:17:03;101331.09;;;6.01;65.41
2188;BME280;1100;52.014;8.540;2023-04-19T07:19:28;101338.28;;;6.06;65.04
2188;BME280;1100;52.014;8.540;2023-04-19T07:21:53;101339.22;;;6.17;65.56
2188;BME280;1100;52.014;8.540;2023-04-19T07:24:19;101332.28;;;6.34;65.24
2188;BME280;1100;52.014;8.540;2023-04-19T07:26:44;101338.28;;;6.44;64.91
2188;BME280;1100;52.014;8.540;2023-04-19T07:29:09;101334.44;;;6.52;64.64
2188;BME280;1100;52.014;8.540;2023-04-19T07:31:35;101331.78;;;6.63;64.15
2188;BME280;1100;52.014;8.540;2023-04-19T07:34:00;101331.97;;;6.89;64.37
2188;BME280;1100;52.014;8.540;2023-04-19T07:36:26;101328.63;;;7.21;64.55
2188;BME280;1100;52.014;8.540;2023-04-19T07:38:51;101330.03;;;7.60;64.69
2188;BME280;1100;52.014;8.540;2023-04-19T07:41:17;101325.81;;;7.92;63.57
2188;BME280;1100;52.014;8.540;2023-04-19T07:43:42;101324.69;;;8.15;62.91
2188;BME280;1100;52.014;8.540;2023-04-19T07:46:09;101326.34;;;8.38;62.69
2188;BME280;1100;52.014;8.540;2023-04-19T07:48:35;101323.16;;;8.43;62.92
2188;BME280;1100;52.014;8.540;2023-04-19T07:51:10;101331.09;;;8.41;61.91
2188;BME280;1100;52.014;8.540;2023-04-19T07:53:37;101322.78;;;8.41;62.38
2188;BME280;1100;52.014;8.540;2023-04-19T07:56:03;101316.81;;;8.39;61.93
2188;BME280;1100;52.014;8.540;2023-04-19T07:58:28;101313.28;;;8.45;61.53
2188;BME280;1100;52.014;8.540;2023-04-19T08:00:54;101314.06;;;8.50;62.26
2188;BME280;1100;52.014;8.540;2023-04-19T08:03:19;101319.25;;;8.69;61.83
2188;BME280;1100;52.014;8.540;2023-04-19T08:05:46;101313.72;;;8.73;61.03
2188;BME280;1100;52.014;8.540;2023-04-19T08:08:11;101317.69;;;8.72;61.12
2188;BME280;1100;52.014;8.540;2023-04-19T08:10:36;101314.50;;;8.70;60.31
2188;BME280;1100;52.014;8.540;2023-04-19T08:13:01;101308.94;;;8.66;60.71
2188;BME280;1100;52.014;8.540;2023-04-19T08:15:27;101313.69;;;8.69;60.76
2188;BME280;1100;52.014;8.540;2023-04-19T08:17:52;101303.78;;;8.97;60.75
2188;BME280;1100;52.014;8.540;2023-04-19T08:20:18;101307.28;;;9.27;59.21
2188;BME280;1100;52.014;8.540;2023-04-19T08:22:43;101313.16;;;9.58;59.96
2188;BME280;1100;52.014;8.540;2023-04-19T08:25:09;101305.81;;;10.01;59.80
2188;BME280;1100;52.014;8.540;2023-04-19T08:27:35;101300.38;;;10.47;60.00
2188;BME280;1100;52.014;8.540;2023-04-19T08:30:00;101300.91;;;10.80;58.70
2188;BME280;1100;52.014;8.540;2023-04-19T08:32:26;101298.44;;;10.90;57.67
2188;BME280;1100;52.014;8.540;2023-04-19T08:34:51;101297.19;;;10.98;57.59
2188;BME280;1100;52.014;8.540;2023-04-19T08:37:17;101294.41;;;11.33;58.84
2188;BME280;1100;52.014;8.540;2023-04-19T08:39:42;101289.56;;;11.72;58.38
2188;BME280;1100;52.014;8.540;2023-04-19T08:42:08;101286.91;;;11.92;56.02
2188;BME280;1100;52.014;8.540;2023-04-19T08:44:35;101282.34;;;12.06;55.83
2188;BME280;1100;52.014;8.540;2023-04-19T08:47:04;101290.81;;;12.30;56.04
2188;BME280;1100;52.014;8.540;2023-04-19T08:49:33;101293.50;;;12.33;54.72
2188;BME280;1100;52.014;8.540;2023-04-19T08:52:00;101279.09;;;12.39;53.99
2188;BME280;1100;52.014;8.540;2023-04-19T08:54:28;101275.41;;;12.45;53.92
2188;BME280;1100;52.014;8.540;2023-04-19T08:56:53;101284.81;;;12.55;49.33
2188;BME280;1100;52.014;8.540;2023-04-19T08:59:19;101278.97;;;12.46;51.09
2188;BME280;1100;52.014;8.540;2023-04-19T09:01:45;101264.94;;;12.53;52.32
2188;BME280;1100;52.014;8.540;2023-04-19T09:04:10;101266.31;;;12.89;52.68
2188;BME280;1100;52.014;8.540;2023-04-19T09:06:37;101272.66;;;12.90;51.02
2188;BME280;1100;52.014;8.540;2023-04-19T09:09:23;101266.78;;;12.84;51.56
2188;BME280;1100;52.014;8.540;2023-04-19T09:11:49;101261.50;;;12.90;51.13
2188;BME280;1100;52.014;8.540;2023-04-19T09:14:17;101251.19;;;12.87;51.20
2188;BME280;1100;52.014;8.540;2023-04-19T09:16:43;101258.38;;;12.88;50.94
2188;BME280;1100;52.014;8.540;2023-04-19T09:19:09;101260.16;;;12.98;50.75
2188;BME280;1100;52.014;8.540;2023-04-19T09:21:37;101264.03;;;13.04;50.98
2188;BME280;1100;52.014;8.540;2023-04-19T09:24:03;101259.34;;;12.98;50.27
2188;BME280;1100;52.014;8.540;2023-04-19T09:26:28;101246.63;;;12.96;50.80
2188;BME280;1100;52.014;8.540;2023-04-19T09:28:55;101250.34;;;12.90;49.62
2188;BME280;1100;52.014;8.540;2023-04-19T09:31:21;101239.88;;;12.74;49.27
2188;BME280;1100;52.014;8.540;2023-04-19T09:33:46;101247.44;;;12.73;50.00
2188;BME280;1100;52.014;8.540;2023-04-19T09:36:25;101242.69;;;12.94;49.14
2188;BME280;1100;52.014;8.540;2023-04-19T09:38:51;101236.19;;;13.21;47.36
2188;BME280;1100;52.014;8.540;2023-04-19T09:41:17;101245.34;;;13.42;47.86
2188;BME280;1100;52.014;8.540;2023-04-19T09:43:43;101247.81;;;13.60;47.23
2188;BME280;1100;52.014;8.540;2023-04-19T09:46:08;101238.22;;;13.78;47.50
2188;BME280;1100;52.014;8.540;2023-04-19T09:48:53;101250.41;;;14.04;47.27
2188;BME280;1100;52.014;8.540;2023-04-19T09:51:19;101233.47;;;14.12;46.95
2188;BME280;1100;52.014;8.540;2023-04-19T09:53:44;101221.41;;;14.15;46.56
2188;BME280;1100;52.014;8.540;2023-04-19T09:56:10;101233.88;;;14.43;46.94
2188;BME280;1100;52.014;8.540;2023-04-19T09:58:36;101229.22;;;14.87;46.40
2188;BME280;1100;52.014;8.540;2023-04-19T10:01:03;101224.88;;;14.99;46.21
2188;BME280;1100;52.014;8.540;2023-04-19T10:03:29;101219.91;;;15.19;46.55
2188;BME280;1100;52.014;8.540;2023-04-19T10:05:56;101211.19;;;15.30;45.36
2188;BME280;1100;52.014;8.540;2023-04-19T10:08:22;101219.94;;;15.32;43.13
2188;BME280;1100;52.014;8.540;2023-04-19T10:10:48;101211.94;;;15.18;42.84
2188;BME280;1100;52.014;8.540;2023-04-19T10:13:18;101210.25;;;15.07;42.18
2188;BME280;1100;52.014;8.540;2023-04-19T10:15:47;101208.66;;;15.06;42.66
2188;BME280;1100;52.014;8.540;2023-04-19T10:18:13;101204.03;;;15.29;43.32
2188;BME280;1100;52.014;8.540;2023-04-19T10:20:50;101199.44;;;15.36;42.31
2188;BME280;1100;52.014;8.540;2023-04-19T10:23:18;101202.59;;;15.64;42.58
2188;BME280;1100;52.014;8.540;2023-04-19T10:25:46;101191.28;;;15.93;41.46
2188;BME280;1100;52.014;8.540;2023-04-19T10:28:11;101189.13;;;15.85;42.43
2188;BME280;1100;52.014;8.540;2023-04-19T10:30:51;101174.00;;;15.95;40.70
2188;BME280;1100;52.014;8.540;2023-04-19T10:33:24;101181.97;;;15.84;40.40
2188;BME280;1100;52.014;8.540;2023-04-19T10:35:54;101185.41;;;15.88;40.89
2188;BME280;1100;52.014;8.540;2023-04-19T10:38:37;101167.13;;;15.96;39.68
2188;BME280;1100;52.014;8.540;2023-04-19T10:41:03;101172.97;;;16.15;40.60
2188;BME280;1100;52.014;8.540;2023-04-19T10:43:30;101171.75;;;16.16;38.85
2188;BME280;1100;52.014;8.540;2023-04-19T10:46:01;101176.56;;;16.15;39.53
2188;BME280;1100;52.014;8.540;2023-04-19T10:48:31;101156.28;;;16.11;38.47
2188;BME280;1100;52.014;8.540;2023-04-19T10:51:01;101168.88;;;16.29;39.44
2188;BME280;1100;52.014;8.540;2023-04-19T10:53:44;101154.09;;;16.28;38.97
2188;BME280;1100;52.014;8.540;2023-04-19T10:56:10;101154.41;;;16.30;39.61
2188;BME280;1100;52.014;8.540;2023-04-19T11:01:42;101142.38;;;16.65;37.16
2188;BME280;1100;52.014;8.540;2023-04-19T11:04:08;101144.16;;;16.72;38.05
2188;BME280;1100;52.014;8.540;2023-04-19T11:06:34;101147.22;;;17.10;36.54
2188;BME280;1100;52.014;8.540;2023-04-19T11:09:00;101137.81;;;16.81;35.02
2188;BME280;1100;52.014;8.540;2023-04-19T11:11:32;101132.41;;;16.64;35.62
2188;BME280;1100;52.014;8.540;2023-04-19T11:13:59;101133.16;;;16.65;35.66
2188;BME280;1100;52.014;8.540;2023-04-19T11:16:26;101130.34;;;16.65;36.40
2188;BME280;1100;52.014;8.540;2023-04-19T11:18:51;101121.69;;;16.50;34.87
2188;BME280;1100;52.014;8.540;2023-04-19T11:21:17;101128.03;;;16.41;36.10
2188;BME280;1100;52.014;8.540;2023-04-19T11:23:42;101121.53;;;16.31;34.43
2188;BME280;1100;52.014;8.540;2023-04-19T11:26:11;101117.00;;;16.47;35.73
2188;BME280;1100;52.014;8.540;2023-04-19T11:28:37;101116.41;;;16.52;35.88
2188;BME280;1100;52.014;8.540;2023-04-19T11:31:03;101117.69;;;16.60;35.54
2188;BME280;1100;52.014;8.540;2023-04-19T11:33:33;101097.75;;;16.58;35.89
2188;BME280;1100;52.014;8.540;2023-04-19T11:35:58;101104.91;;;16.59;36.06
2188;BME280;1100;52.014;8.540;2023-04-19T11:38:26;101086.25;;;16.65;34.61
2188;BME280;1100;52.014;8.540;2023-04-19T11:40:59;101087.03;;;16.66;35.79
2188;BME280;1100;52.014;8.540;2023-04-19T11:43:34;101092.53;;;17.01;35.35
2188;BME280;1100;52.014;8.540;2023-04-19T11:46:10;101088.00;;;17.04;34.14
2188;BME280;1100;52.014;8.540;2023-04-19T11:48:36;101088.75;;;16.95;33.96
2188;BME280;1100;52.014;8.540;2023-04-19T11:51:02;101078.84;;;16.81;34.68
2188;BME280;1100;52.014;8.540;2023-04-19T11:53:30;101085.06;;;16.76;35.38
2188;BME280;1100;52.014;8.540;2023-04-19T11:56:06;101080.81;;;16.71;34.51
2188;BME280;1100;52.014;8.540;2023-04-19T11:58:40;101057.66;;;16.58;34.38
2188;BME280;1100;52.014;8.540;2023-04-19T12:01:13;101073.91;;;16.40;34.08
2188;BME280;1100;52.014;8.540;2023-04-19T12:03:53;101060.34;;;16.39;34.69
2188;BME280;1100;52.014;8.540;2023-04-19T12:06:26;101047.09;;;16.39;34.50
2188;BME280;1100;52.014;8.540;2023-04-19T12:08:53;101053.03;;;16.41;35.10
2188;BME280;1100;52.014;8.540;2023-04-19T12:11:24;101048.59;;;16.31;34.72
2188;BME280;1100;52.014;8.540;2023-04-19T12:14:16;101057.13;;;16.27;35.00
2188;BME280;1100;52.014;8.540;2023-04-19T12:16:44;101049.75;;;16.43;34.08
2188;BME280;1100;52.014;8.540;2023-04-19T12:19:14;101033.34;;;15.97;33.13
2188;BME280;1100;52.014;8.540;2023-04-19T12:21:41;101035.19;;;15.77;35.28
2188;BME280;1100;52.014;8.540;2023-04-19T12:24:07;101030.78;;;15.89;34.87
2188;BME280;1100;52.014;8.540;2023-04-19T12:26:33;101031.22;;;16.01;35.19
2188;BME280;1100;52.014;8.540;2023-04-19T12:29:00;101023.81;;;15.94;34.83
2188;BME280;1100;52.014;8.540;2023-04-19T12:31:26;101024.00;;;15.77;34.48
2188;BME280;1100;52.014;8.540;2023-04-19T12:33:52;101019.09;;;15.68;35.79
2188;BME280;1100;52.014;8.540;2023-04-19T12:36:18;101008.16;;;15.84;35.89
2188;BME280;1100;52.014;8.540;2023-04-19T12:38:44;101013.34;;;15.72;35.67
2188;BME280;1100;52.014;8.540;2023-04-19T12:41:09;101008.19;;;15.22;34.41
2188;BME280;1100;52.014;8.540;2023-04-19T12:43:35;101004.06;;;15.14;33.77
2188;BME280;1100;52.014;8.540;2023-04-19T12:46:00;100995.66;;;14.88;33.67
2188;BME280;1100;52.014;8.540;2023-04-19T12:48:26;100994.91;;;14.57;34.62
2188;BME280;1100;52.014;8.540;2023-04-19T12:50:53;101000.63;;;14.54;34.37
2188;BME280;1100;52.014;8.540;2023-04-19T12:53:19;100994.38;;;14.20;33.76
2188;BME280;1100;52.014;8.540;2023-04-19T12:55:44;100995.22;;;14.47;34.34
2188;BME280;1100;52.014;8.540;2023-04-19T12:58:12;100983.41;;;14.13;34.41
2188;BME280;1100;52.014;8.540;2023-04-19T13:00:38;100981.38;;;14.43;34.22
2188;BME280;1100;52.014;8.540;2023-04-19T13:03:03;100974.41;;;14.90;34.55
2188;BME280;1100;52.014;8.540;2023-04-19T13:05:28;100974.44;;;15.39;33.41
2188;BME280;1100;52.014;8.540;2023-04-19T13:07:54;100974.09;;;15.72;33.28
2188;BME280;1100;52.014;8.540;2023-04-19T13:10:19;100965.66;;;15.85;32.16
2188;BME280;1100;52.014;8.540;2023-04-19T13:12:45;100966.91;;;15.84;33.49
2188;BME280;1100;52.014;8.540;2023-04-19T13:15:10;100970.72;;;15.77;33.22
2188;BME280;1100;52.014;8.540;2023-04-19T13:17:36;100963.66;;;15.86;31.77